San Martin de los Andes, Argentina
Current Conditions -  °F | °C
As of 7:00 AM on Friday 19 Dec 2014 (Local Time) from SAZS Reporting Station
Scattered Clouds Scattered Clouds  
Wind Chill: 50°   Ceiling: Unl
Heat Index: 50°   Visibility: 6mi
Dew Point: 43°   Wind: 46mph
Humidity: 76%   Direction: 320°NW
Pressure: 29.5"   Gusts: 49mph
Location:  40.16°S, 71.36°W
Report Text: SAZS 191000Z 32040G43KT 9999 SCT040 SCT045 FEW100 10/06 Q0999
Loading
Personal Weather Stations






























Interactive Weather Map New forecast layout! Learn more

10-Day Weather Forecast

Advertisements
Track Severe Weather on mobile